sensor_id;sensor_type;location;lat;lon;timestamp;pressure;altitude;pressure_sealevel;temperature;humidity
51053;BME280;37093;37.716;-122.060;2023-05-21T00:02:02;100234.86;;;20.67;41.69
51053;BME280;37093;37.716;-122.060;2023-05-21T00:04:31;100235.98;;;19.13;44.16
51053;BME280;37093;37.716;-122.060;2023-05-21T00:06:59;100225.11;;;20.55;41.96
51053;BME280;37093;37.716;-122.060;2023-05-21T00:09:28;100226.36;;;19.92;42.42
51053;BME280;37093;37.716;-122.060;2023-05-21T00:11:56;100226.30;;;19.80;43.83
51053;BME280;37093;37.716;-122.060;2023-05-21T00:14:25;100222.80;;;19.50;45.00
51053;BME280;37093;37.716;-122.060;2023-05-21T00:16:53;100223.60;;;19.23;45.48
51053;BME280;37093;37.716;-122.060;2023-05-21T00:19:22;100230.40;;;19.32;44.71
51053;BME280;37093;37.716;-122.060;2023-05-21T00:21:50;100219.47;;;18.83;45.88
51053;BME280;37093;37.716;-122.060;2023-05-21T00:24:19;100222.07;;;19.29;44.27
51053;BME280;37093;37.716;-122.060;2023-05-21T00:26:47;100222.99;;;19.42;44.13
51053;BME280;37093;37.716;-122.060;2023-05-21T00:29:16;100224.37;;;19.56;43.12
51053;BME280;37093;37.716;-122.060;2023-05-21T00:31:45;100223.84;;;19.58;43.96
51053;BME280;37093;37.716;-122.060;2023-05-21T00:34:13;100222.63;;;18.99;45.08
51053;BME280;37093;37.716;-122.060;2023-05-21T00:36:41;100221.90;;;18.86;46.40
51053;BME280;37093;37.716;-122.060;2023-05-21T00:39:11;100220.90;;;18.62;46.42
51053;BME280;37093;37.716;-122.060;2023-05-21T00:41:39;100219.02;;;18.48;46.91
51053;BME280;37093;37.716;-122.060;2023-05-21T00:44:08;100220.47;;;17.89;48.08
51053;BME280;37093;37.716;-122.060;2023-05-21T00:46:38;100220.68;;;18.83;47.07
51053;BME280;37093;37.716;-122.060;2023-05-21T00:49:07;100223.49;;;18.87;45.82
51053;BME280;37093;37.716;-122.060;2023-05-21T00:51:35;100226.41;;;18.71;45.69
51053;BME280;37093;37.716;-122.060;2023-05-21T00:54:04;100222.24;;;19.27;44.53
51053;BME280;37093;37.716;-122.060;2023-05-21T00:56:32;100233.04;;;19.71;44.56
51053;BME280;37093;37.716;-122.060;2023-05-21T00:59:01;100231.58;;;19.15;45.04
51053;BME280;37093;37.716;-122.060;2023-05-21T01:01:29;100226.14;;;19.12;45.22
51053;BME280;37093;37.716;-122.060;2023-05-21T01:03:57;100225.83;;;19.18;45.10
51053;BME280;37093;37.716;-122.060;2023-05-21T01:06:27;100232.81;;;18.89;44.93
51053;BME280;37093;37.716;-122.060;2023-05-21T01:08:56;100237.21;;;19.05;45.19
51053;BME280;37093;37.716;-122.060;2023-05-21T01:11:39;100237.93;;;18.08;46.97
51053;BME280;37093;37.716;-122.060;2023-05-21T01:14:11;100239.50;;;18.56;47.50
51053;BME280;37093;37.716;-122.060;2023-05-21T01:16:41;100235.51;;;18.78;46.92
51053;BME280;37093;37.716;-122.060;2023-05-21T01:19:14;100234.41;;;17.33;48.73
51053;BME280;37093;37.716;-122.060;2023-05-21T01:21:45;100239.07;;;18.17;47.74
51053;BME280;37093;37.716;-122.060;2023-05-21T01:24:16;100242.87;;;18.25;48.10
51053;BME280;37093;37.716;-122.060;2023-05-21T01:26:44;100238.13;;;18.51;47.05
51053;BME280;37093;37.716;-122.060;2023-05-21T01:29:13;100234.20;;;18.65;46.52
51053;BME280;37093;37.716;-122.060;2023-05-21T01:31:55;100237.48;;;18.70;45.87
51053;BME280;37093;37.716;-122.060;2023-05-21T01:34:31;100239.69;;;18.48;48.27
51053;BME280;37093;37.716;-122.060;2023-05-21T01:37:11;100244.66;;;18.53;47.26
51053;BME280;37093;37.716;-122.060;2023-05-21T01:39:46;100244.85;;;17.66;50.33
51053;BME280;37093;37.716;-122.060;2023-05-21T01:42:19;100242.64;;;17.57;50.30
51053;BME280;37093;37.716;-122.060;2023-05-21T01:44:51;100243.90;;;17.15;51.06
51053;BME280;37093;37.716;-122.060;2023-05-21T01:47:23;100239.14;;;17.00;50.80
51053;BME280;37093;37.716;-122.060;2023-05-21T01:49:53;100236.80;;;17.16;50.35
51053;BME280;37093;37.716;-122.060;2023-05-21T01:52:23;100235.25;;;17.51;50.39
51053;BME280;37093;37.716;-122.060;2023-05-21T01:54:51;100237.11;;;17.54;49.75
51053;BME280;37093;37.716;-122.060;2023-05-21T01:57:20;100231.98;;;18.07;48.31
51053;BME280;37093;37.716;-122.060;2023-05-21T01:59:49;100233.29;;;18.31;47.35
51053;BME280;37093;37.716;-122.060;2023-05-21T02:02:18;100232.60;;;17.77;48.12
51053;BME280;37093;37.716;-122.060;2023-05-21T02:04:46;100233.02;;;18.02;48.23
51053;BME280;37093;37.716;-122.060;2023-05-21T02:07:15;100233.52;;;17.89;47.96
51053;BME280;37093;37.716;-122.060;2023-05-21T02:09:43;100230.21;;;18.00;49.21
51053;BME280;37093;37.716;-122.060;2023-05-21T02:12:12;100233.23;;;17.08;49.95
51053;BME280;37093;37.716;-122.060;2023-05-21T02:14:40;100228.46;;;17.08;50.69
51053;BME280;37093;37.716;-122.060;2023-05-21T02:17:09;100236.09;;;16.29;53.96
51053;BME280;37093;37.716;-122.060;2023-05-21T02:19:37;100228.16;;;16.53;52.10
51053;BME280;37093;37.716;-122.060;2023-05-21T02:22:06;100226.52;;;16.56;51.50
51053;BME280;37093;37.716;-122.060;2023-05-21T02:24:35;100233.32;;;17.20;50.38
51053;BME280;37093;37.716;-122.060;2023-05-21T02:27:03;100237.11;;;17.16;49.87
51053;BME280;37093;37.716;-122.060;2023-05-21T02:29:32;100240.69;;;17.01;51.08
51053;BME280;37093;37.716;-122.060;2023-05-21T02:32:01;100240.45;;;16.90;51.14
51053;BME280;37093;37.716;-122.060;2023-05-21T02:34:29;100243.46;;;17.45;48.93
51053;BME280;37093;37.716;-122.060;2023-05-21T02:36:57;100248.05;;;16.52;51.64
51053;BME280;37093;37.716;-122.060;2023-05-21T02:39:26;100244.34;;;16.77;51.64
51053;BME280;37093;37.716;-122.060;2023-05-21T02:41:54;100242.10;;;16.56;52.72
51053;BME280;37093;37.716;-122.060;2023-05-21T02:44:23;100244.01;;;17.18;51.32
51053;BME280;37093;37.716;-122.060;2023-05-21T02:46:52;100250.19;;;15.66;54.86
51053;BME280;37093;37.716;-122.060;2023-05-21T02:49:20;100251.24;;;16.73;51.91
51053;BME280;37093;37.716;-122.060;2023-05-21T02:51:49;100255.16;;;16.40;53.34
51053;BME280;37093;37.716;-122.060;2023-05-21T02:54:17;100251.89;;;15.67;55.55
51053;BME280;37093;37.716;-122.060;2023-05-21T02:56:46;100249.22;;;16.14;53.40
51053;BME280;37093;37.716;-122.060;2023-05-21T02:59:14;100245.13;;;16.12;54.23
51053;BME280;37093;37.716;-122.060;2023-05-21T03:01:43;100243.10;;;15.97;54.85
51053;BME280;37093;37.716;-122.060;2023-05-21T03:04:11;100246.33;;;15.70;55.93
51053;BME280;37093;37.716;-122.060;2023-05-21T03:06:39;100246.31;;;16.17;54.18
51053;BME280;37093;37.716;-122.060;2023-05-21T03:09:07;100245.50;;;16.27;54.21
51053;BME280;37093;37.716;-122.060;2023-05-21T03:11:36;100244.22;;;16.66;52.75
51053;BME280;37093;37.716;-122.060;2023-05-21T03:14:05;100245.89;;;16.04;54.01
51053;BME280;37093;37.716;-122.060;2023-05-21T03:16:33;100245.48;;;16.14;54.59
51053;BME280;37093;37.716;-122.060;2023-05-21T03:19:01;100249.33;;;16.35;53.37
51053;BME280;37093;37.716;-122.060;2023-05-21T03:21:30;100249.62;;;15.48;55.22
51053;BME280;37093;37.716;-122.060;2023-05-21T03:23:59;100249.30;;;16.00;54.28
51053;BME280;37093;37.716;-122.060;2023-05-21T03:26:27;100250.72;;;15.67;55.16
51053;BME280;37093;37.716;-122.060;2023-05-21T03:28:56;100249.85;;;15.27;56.50
51053;BME280;37093;37.716;-122.060;2023-05-21T03:31:25;100248.91;;;15.23;57.67
51053;BME280;37093;37.716;-122.060;2023-05-21T03:33:53;100244.90;;;15.07;56.97
51053;BME280;37093;37.716;-122.060;2023-05-21T03:36:22;100248.88;;;15.66;56.93
51053;BME280;37093;37.716;-122.060;2023-05-21T03:38:50;100252.87;;;15.50;56.34
51053;BME280;37093;37.716;-122.060;2023-05-21T03:41:19;100256.45;;;15.39;55.34
51053;BME280;37093;37.716;-122.060;2023-05-21T03:43:47;100254.54;;;15.80;55.11
51053;BME280;37093;37.716;-122.060;2023-05-21T03:46:16;100256.32;;;16.03;52.87
51053;BME280;37093;37.716;-122.060;2023-05-21T03:48:45;100251.60;;;16.22;53.50
51053;BME280;37093;37.716;-122.060;2023-05-21T03:51:14;100252.50;;;16.87;52.44
51053;BME280;37093;37.716;-122.060;2023-05-21T03:53:42;100259.10;;;16.16;53.97
51053;BME280;37093;37.716;-122.060;2023-05-21T03:56:10;100261.30;;;15.77;55.04
51053;BME280;37093;37.716;-122.060;2023-05-21T03:58:39;100256.57;;;15.04;58.57
51053;BME280;37093;37.716;-122.060;2023-05-21T04:01:08;100263.05;;;14.38;60.30
51053;BME280;37093;37.716;-122.060;2023-05-21T04:03:36;100270.65;;;15.41;56.90
51053;BME280;37093;37.716;-122.060;2023-05-21T04:06:05;100271.53;;;14.79;59.12
51053;BME280;37093;37.716;-122.060;2023-05-21T04:08:33;100268.97;;;16.00;55.41
51053;BME280;37093;37.716;-122.060;2023-05-21T04:11:01;100271.94;;;15.67;55.83
51053;BME280;37093;37.716;-122.060;2023-05-21T04:13:30;100269.46;;;15.52;56.73
51053;BME280;37093;37.716;-122.060;2023-05-21T04:15:59;100268.35;;;15.31;58.10
51053;BME280;37093;37.716;-122.060;2023-05-21T04:18:27;100262.75;;;14.92;58.15
51053;BME280;37093;37.716;-122.060;2023-05-21T04:20:55;100267.55;;;15.38;56.21
51053;BME280;37093;37.716;-122.060;2023-05-21T04:23:24;100265.74;;;16.02;54.17
51053;BME280;37093;37.716;-122.060;2023-05-21T04:25:53;100267.30;;;15.84;55.91
51053;BME280;37093;37.716;-122.060;2023-05-21T04:28:21;100269.89;;;15.17;59.97
51053;BME280;37093;37.716;-122.060;2023-05-21T04:30:50;100272.24;;;14.96;59.35
51053;BME280;37093;37.716;-122.060;2023-05-21T04:33:18;100268.81;;;15.08;58.53
51053;BME280;37093;37.716;-122.060;2023-05-21T04:35:50;100268.61;;;14.98;58.29
51053;BME280;37093;37.716;-122.060;2023-05-21T04:38:18;100265.95;;;15.33;58.25
51053;BME280;37093;37.716;-122.060;2023-05-21T04:40:48;100267.43;;;15.01;58.44
51053;BME280;37093;37.716;-122.060;2023-05-21T04:43:17;100278.83;;;15.62;56.29
51053;BME280;37093;37.716;-122.060;2023-05-21T04:45:45;100278.84;;;15.70;57.06
51053;BME280;37093;37.716;-122.060;2023-05-21T04:48:14;100282.75;;;15.70;55.72
51053;BME280;37093;37.716;-122.060;2023-05-21T04:50:43;100281.87;;;15.37;56.89
51053;BME280;37093;37.716;-122.060;2023-05-21T04:53:11;100277.21;;;15.02;58.68
51053;BME280;37093;37.716;-122.060;2023-05-21T04:55:39;100277.91;;;15.32;55.66
51053;BME280;37093;37.716;-122.060;2023-05-21T04:58:08;100281.56;;;15.52;56.57
51053;BME280;37093;37.716;-122.060;2023-05-21T05:00:37;100279.15;;;16.16;53.68
51053;BME280;37093;37.716;-122.060;2023-05-21T05:03:06;100278.75;;;15.44;56.32
51053;BME280;37093;37.716;-122.060;2023-05-21T05:05:34;100276.50;;;15.04;57.65
51053;BME280;37093;37.716;-122.060;2023-05-21T05:08:03;100283.03;;;14.88;58.44
51053;BME280;37093;37.716;-122.060;2023-05-21T05:10:31;100290.52;;;15.32;57.67
51053;BME280;37093;37.716;-122.060;2023-05-21T05:13:00;100294.24;;;15.06;56.58
51053;BME280;37093;37.716;-122.060;2023-05-21T05:15:28;100292.27;;;15.07;58.65
51053;BME280;37093;37.716;-122.060;2023-05-21T05:17:57;100286.89;;;15.61;58.12
51053;BME280;37093;37.716;-122.060;2023-05-21T05:20:25;100292.96;;;15.46;56.36
51053;BME280;37093;37.716;-122.060;2023-05-21T05:22:54;100289.19;;;15.80;55.21
51053;BME280;37093;37.716;-122.060;2023-05-21T05:25:23;100284.93;;;15.80;55.84
51053;BME280;37093;37.716;-122.060;2023-05-21T05:27:51;100285.37;;;16.17;55.09
51053;BME280;37093;37.716;-122.060;2023-05-21T05:30:20;100284.11;;;15.43;57.11
51053;BME280;37093;37.716;-122.060;2023-05-21T05:32:48;100286.61;;;15.52;57.92
51053;BME280;37093;37.716;-122.060;2023-05-21T05:35:17;100284.10;;;15.25;58.31
51053;BME280;37093;37.716;-122.060;2023-05-21T05:37:46;100286.99;;;15.69;56.01
51053;BME280;37093;37.716;-122.060;2023-05-21T05:40:14;100289.09;;;15.79;55.84
51053;BME280;37093;37.716;-122.060;2023-05-21T05:42:43;100295.08;;;15.74;56.74
51053;BME280;37093;37.716;-122.060;2023-05-21T05:45:11;100287.84;;;14.90;57.43
51053;BME280;37093;37.716;-122.060;2023-05-21T05:47:39;100289.99;;;15.57;56.21
51053;BME280;37093;37.716;-122.060;2023-05-21T05:50:08;100287.21;;;15.77;54.56
51053;BME280;37093;37.716;-122.060;2023-05-21T05:52:36;100287.20;;;16.72;52.73
51053;BME280;37093;37.716;-122.060;2023-05-21T05:55:07;100281.94;;;16.98;51.84
51053;BME280;37093;37.716;-122.060;2023-05-21T05:57:35;100280.19;;;17.18;51.94
51053;BME280;37093;37.716;-122.060;2023-05-21T06:00:04;100286.90;;;17.02;51.05
51053;BME280;37093;37.716;-122.060;2023-05-21T06:02:33;100291.16;;;16.55;52.94
51053;BME280;37093;37.716;-122.060;2023-05-21T06:05:01;100288.06;;;16.55;53.11
51053;BME280;37093;37.716;-122.060;2023-05-21T06:07:30;100286.43;;;16.49;53.53
51053;BME280;37093;37.716;-122.060;2023-05-21T06:09:58;100287.22;;;16.95;52.11
51053;BME280;37093;37.716;-122.060;2023-05-21T06:12:27;100291.29;;;16.16;54.69
51053;BME280;37093;37.716;-122.060;2023-05-21T06:14:55;100292.18;;;16.38;53.03
51053;BME280;37093;37.716;-122.060;2023-05-21T06:17:23;100286.54;;;16.94;51.79
51053;BME280;37093;37.716;-122.060;2023-05-21T06:19:52;100285.63;;;17.66;50.49
51053;BME280;37093;37.716;-122.060;2023-05-21T06:22:20;100287.78;;;17.38;50.74
51053;BME280;37093;37.716;-122.060;2023-05-21T06:24:49;100283.23;;;16.34;53.39
51053;BME280;37093;37.716;-122.060;2023-05-21T06:27:17;100279.87;;;17.01;51.46
51053;BME280;37093;37.716;-122.060;2023-05-21T06:29:46;100277.87;;;17.21;51.52
51053;BME280;37093;37.716;-122.060;2023-05-21T06:32:14;100277.00;;;16.78;52.35
51053;BME280;37093;37.716;-122.060;2023-05-21T06:34:43;100280.57;;;16.36;53.87
51053;BME280;37093;37.716;-122.060;2023-05-21T06:37:12;100276.80;;;16.84;52.19
51053;BME280;37093;37.716;-122.060;2023-05-21T06:39:40;100271.61;;;17.14;51.61
51053;BME280;37093;37.716;-122.060;2023-05-21T06:42:08;100270.37;;;17.16;51.69
51053;BME280;37093;37.716;-122.060;2023-05-21T06:44:37;100269.21;;;16.81;52.54
51053;BME280;37093;37.716;-122.060;2023-05-21T06:47:06;100269.04;;;16.37;53.09
51053;BME280;37093;37.716;-122.060;2023-05-21T06:49:34;100265.00;;;16.34;52.73
51053;BME280;37093;37.716;-122.060;2023-05-21T06:52:03;100257.49;;;16.35;53.24
51053;BME280;37093;37.716;-122.060;2023-05-21T06:54:31;100258.00;;;16.06;53.17
51053;BME280;37093;37.716;-122.060;2023-05-21T06:57:00;100253.67;;;15.88;53.97
51053;BME280;37093;37.716;-122.060;2023-05-21T06:59:28;100250.80;;;16.09;54.25
51053;BME280;37093;37.716;-122.060;2023-05-21T07:01:12;100255.94;;;14.94;53.89
51053;BME280;37093;37.716;-122.060;2023-05-21T07:03:40;100256.98;;;15.00;52.85
51053;BME280;37093;37.716;-122.060;2023-05-21T07:06:08;100260.77;;;15.69;53.68
51053;BME280;37093;37.716;-122.060;2023-05-21T07:08:37;100260.73;;;16.83;51.65
51053;BME280;37093;37.716;-122.060;2023-05-21T07:11:06;100264.32;;;16.10;54.12
51053;BME280;37093;37.716;-122.060;2023-05-21T07:13:35;100262.87;;;15.37;56.84
51053;BME280;37093;37.716;-122.060;2023-05-21T07:16:03;100255.79;;;14.95;56.07
51053;BME280;37093;37.716;-122.060;2023-05-21T07:18:31;100252.46;;;15.71;56.11
51053;BME280;37093;37.716;-122.060;2023-05-21T07:21:00;100248.92;;;15.98;54.26
51053;BME280;37093;37.716;-122.060;2023-05-21T07:23:28;100242.16;;;16.34;54.10
51053;BME280;37093;37.716;-122.060;2023-05-21T07:25:57;100235.70;;;15.74;53.96
51053;BME280;37093;37.716;-122.060;2023-05-21T07:28:25;100234.60;;;16.00;54.47
51053;BME280;37093;37.716;-122.060;2023-05-21T07:30:54;100235.70;;;15.37;56.44
51053;BME280;37093;37.716;-122.060;2023-05-21T07:33:23;100233.19;;;15.65;55.99
51053;BME280;37093;37.716;-122.060;2023-05-21T07:35:51;100232.01;;;14.57;58.92
51053;BME280;37093;37.716;-122.060;2023-05-21T07:38:20;100235.13;;;16.25;54.74
51053;BME280;37093;37.716;-122.060;2023-05-21T07:40:49;100235.17;;;15.85;55.00
51053;BME280;37093;37.716;-122.060;2023-05-21T07:43:18;100234.88;;;15.66;55.47
51053;BME280;37093;37.716;-122.060;2023-05-21T07:45:46;100232.55;;;15.18;56.76
51053;BME280;37093;37.716;-122.060;2023-05-21T07:48:15;100228.99;;;15.23;56.38
51053;BME280;37093;37.716;-122.060;2023-05-21T07:50:43;100227.47;;;15.48;56.02
51053;BME280;37093;37.716;-122.060;2023-05-21T07:53:12;100228.87;;;15.27;58.17
51053;BME280;37093;37.716;-122.060;2023-05-21T07:55:40;100220.94;;;14.90;57.80
51053;BME280;37093;37.716;-122.060;2023-05-21T07:58:10;100218.53;;;14.02;61.35
51053;BME280;37093;37.716;-122.060;2023-05-21T08:00:43;100222.28;;;14.95;59.18
51053;BME280;37093;37.716;-122.060;2023-05-21T08:03:13;100217.63;;;14.39;60.27
51053;BME280;37093;37.716;-122.060;2023-05-21T08:05:42;100221.36;;;14.75;58.63
51053;BME280;37093;37.716;-122.060;2023-05-21T08:08:10;100221.44;;;15.46;57.14
51053;BME280;37093;37.716;-122.060;2023-05-21T08:10:38;100222.52;;;15.48;57.03
51053;BME280;37093;37.716;-122.060;2023-05-21T08:13:07;100217.71;;;15.53;57.07
51053;BME280;37093;37.716;-122.060;2023-05-21T08:15:35;100216.01;;;15.24;58.81
51053;BME280;37093;37.716;-122.060;2023-05-21T08:18:04;100209.62;;;14.90;58.84
51053;BME280;37093;37.716;-122.060;2023-05-21T08:20:32;100210.68;;;15.33;58.05
51053;BME280;37093;37.716;-122.060;2023-05-21T08:23:01;100207.31;;;15.87;56.70
51053;BME280;37093;37.716;-122.060;2023-05-21T08:25:30;100203.73;;;15.97;57.04
51053;BME280;37093;37.716;-122.060;2023-05-21T08:27:58;100206.66;;;15.49;58.16
51053;BME280;37093;37.716;-122.060;2023-05-21T08:30:27;100206.68;;;15.68;58.26
51053;BME280;37093;37.716;-122.060;2023-05-21T08:32:55;100211.59;;;15.80;56.49
51053;BME280;37093;37.716;-122.060;2023-05-21T08:35:24;100211.96;;;15.70;56.77
51053;BME280;37093;37.716;-122.060;2023-05-21T08:37:52;100210.64;;;15.16;59.29
51053;BME280;37093;37.716;-122.060;2023-05-21T08:40:21;100200.91;;;16.27;55.38
51053;BME280;37093;37.716;-122.060;2023-05-21T08:42:50;100202.25;;;15.71;56.51
51053;BME280;37093;37.716;-122.060;2023-05-21T08:45:21;100198.09;;;16.25;55.37
51053;BME280;37093;37.716;-122.060;2023-05-21T08:47:56;100197.67;;;16.49;54.44
51053;BME280;37093;37.716;-122.060;2023-05-21T08:50:26;100198.47;;;16.25;54.43
51053;BME280;37093;37.716;-122.060;2023-05-21T08:52:54;100197.40;;;14.63;60.53
51053;BME280;37093;37.716;-122.060;2023-05-21T08:55:23;100191.31;;;16.10;55.56
51053;BME280;37093;37.716;-122.060;2023-05-21T08:57:53;100193.19;;;16.13;54.70
51053;BME280;37093;37.716;-122.060;2023-05-21T09:00:22;100189.87;;;16.03;54.82
51053;BME280;37093;37.716;-122.060;2023-05-21T09:02:50;100193.74;;;14.95;57.98
51053;BME280;37093;37.716;-122.060;2023-05-21T09:05:19;100189.96;;;15.05;57.20
51053;BME280;37093;37.716;-122.060;2023-05-21T09:07:52;100188.96;;;15.00;58.69
51053;BME280;37093;37.716;-122.060;2023-05-21T09:10:25;100191.46;;;15.40;57.15
51053;BME280;37093;37.716;-122.060;2023-05-21T09:12:56;100192.93;;;15.55;56.72
51053;BME280;37093;37.716;-122.060;2023-05-21T09:15:25;100193.38;;;15.66;56.30
51053;BME280;37093;37.716;-122.060;2023-05-21T09:17:53;100190.99;;;15.19;56.73
51053;BME280;37093;37.716;-122.060;2023-05-21T09:20:25;100188.14;;;15.83;55.75
51053;BME280;37093;37.716;-122.060;2023-05-21T09:22:53;100182.37;;;15.35;57.16
51053;BME280;37093;37.716;-122.060;2023-05-21T09:25:23;100181.41;;;14.81;60.60
51053;BME280;37093;37.716;-122.060;2023-05-21T09:27:52;100179.59;;;14.93;58.03
51053;BME280;37093;37.716;-122.060;2023-05-21T09:30:21;100180.80;;;15.04;56.74
51053;BME280;37093;37.716;-122.060;2023-05-21T09:32:54;100180.17;;;15.80;55.37
51053;BME280;37093;37.716;-122.060;2023-05-21T09:35:23;100179.04;;;15.94;54.98
51053;BME280;37093;37.716;-122.060;2023-05-21T09:37:52;100176.34;;;16.47;53.64
51053;BME280;37093;37.716;-122.060;2023-05-21T09:40:22;100170.94;;;16.15;53.20
51053;BME280;37093;37.716;-122.060;2023-05-21T09:42:51;100168.16;;;16.56;51.84
51053;BME280;37093;37.716;-122.060;2023-05-21T09:45:20;100168.47;;;16.21;51.26
51053;BME280;37093;37.716;-122.060;2023-05-21T09:47:50;100174.68;;;16.28;53.42
51053;BME280;37093;37.716;-122.060;2023-05-21T09:50:20;100168.67;;;16.16;52.62
51053;BME280;37093;37.716;-122.060;2023-05-21T09:52:49;100163.03;;;16.40;53.22
51053;BME280;37093;37.716;-122.060;2023-05-21T09:55:21;100166.45;;;15.51;54.60
51053;BME280;37093;37.716;-122.060;2023-05-21T09:57:50;100163.95;;;15.04;56.20
51053;BME280;37093;37.716;-122.060;2023-05-21T10:00:21;100161.23;;;15.45;55.64
51053;BME280;37093;37.716;-122.060;2023-05-21T10:02:53;100152.39;;;15.84;54.88
51053;BME280;37093;37.716;-122.060;2023-05-21T10:05:25;100148.74;;;16.08;54.41
51053;BME280;37093;37.716;-122.060;2023-05-21T10:07:59;100144.79;;;16.41;55.03
51053;BME280;37093;37.716;-122.060;2023-05-21T10:10:28;100143.02;;;16.02;54.08
51053;BME280;37093;37.716;-122.060;2023-05-21T10:12:59;100142.21;;;16.09;54.34
51053;BME280;37093;37.716;-122.060;2023-05-21T10:15:29;100137.98;;;16.40;54.00
51053;BME280;37093;37.716;-122.060;2023-05-21T10:17:59;100138.55;;;16.05;54.23
51053;BME280;37093;37.716;-122.060;2023-05-21T10:20:28;100132.99;;;16.50;53.89
51053;BME280;37093;37.716;-122.060;2023-05-21T10:22:58;100134.21;;;16.46;53.42
51053;BME280;37093;37.716;-122.060;2023-05-21T10:25:27;100133.98;;;16.60;53.08
51053;BME280;37093;37.716;-122.060;2023-05-21T10:27:56;100135.70;;;16.67;53.06
51053;BME280;37093;37.716;-122.060;2023-05-21T10:30:25;100136.41;;;16.57;52.87
51053;BME280;37093;37.716;-122.060;2023-05-21T10:32:55;100135.75;;;16.63;53.17
51053;BME280;37093;37.716;-122.060;2023-05-21T10:35:25;100132.88;;;16.31;53.34
51053;BME280;37093;37.716;-122.060;2023-05-21T10:37:55;100134.09;;;16.20;53.01
51053;BME280;37093;37.716;-122.060;2023-05-21T10:40:24;100132.59;;;16.19;52.98
51053;BME280;37093;37.716;-122.060;2023-05-21T10:43:27;100132.91;;;16.65;52.13
51053;BME280;37093;37.716;-122.060;2023-05-21T10:46:11;100140.52;;;15.79;55.76
51053;BME280;37093;37.716;-122.060;2023-05-21T10:48:57;100135.35;;;16.09;54.13
51053;BME280;37093;37.716;-122.060;2023-05-21T10:51:37;100133.94;;;16.22;53.50
51053;BME280;37093;37.716;-122.060;2023-05-21T10:54:30;100131.30;;;16.56;53.79
51053;BME280;37093;37.716;-122.060;2023-05-21T10:57:12;100133.50;;;16.21;53.46
51053;BME280;37093;37.716;-122.060;2023-05-21T10:59:44;100130.24;;;16.67;53.08
51053;BME280;37093;37.716;-122.060;2023-05-21T11:02:15;100129.96;;;15.90;54.15
51053;BME280;37093;37.716;-122.060;2023-05-21T11:04:46;100121.58;;;16.29;53.03
51053;BME280;37093;37.716;-122.060;2023-05-21T11:07:17;100119.67;;;16.06;53.40
51053;BME280;37093;37.716;-122.060;2023-05-21T11:09:50;100119.10;;;16.49;52.28
51053;BME280;37093;37.716;-122.060;2023-05-21T11:12:19;100123.20;;;16.35;52.31
51053;BME280;37093;37.716;-122.060;2023-05-21T11:14:56;100125.17;;;16.43;52.71
51053;BME280;37093;37.716;-122.060;2023-05-21T11:17:40;100131.91;;;16.67;51.95
51053;BME280;37093;37.716;-122.060;2023-05-21T11:20:11;100138.69;;;15.99;53.18
51053;BME280;37093;37.716;-122.060;2023-05-21T11:22:40;100141.97;;;15.57;55.60
51053;BME280;37093;37.716;-122.060;2023-05-21T11:25:09;100144.61;;;15.94;53.11
51053;BME280;37093;37.716;-122.060;2023-05-21T11:27:38;100140.82;;;16.37;53.34
51053;BME280;37093;37.716;-122.060;2023-05-21T11:30:08;100140.36;;;15.93;52.43
51053;BME280;37093;37.716;-122.060;2023-05-21T11:32:38;100141.68;;;16.01;53.67
51053;BME280;37093;37.716;-122.060;2023-05-21T11:35:07;100138.95;;;16.27;52.27
51053;BME280;37093;37.716;-122.060;2023-05-21T11:37:35;100136.82;;;16.17;53.17
51053;BME280;37093;37.716;-122.060;2023-05-21T11:40:24;100135.97;;;16.31;53.19
51053;BME280;37093;37.716;-122.060;2023-05-21T11:42:53;100128.89;;;16.20;52.52
51053;BME280;37093;37.716;-122.060;2023-05-21T11:45:22;100128.33;;;16.35;52.20
51053;BME280;37093;37.716;-122.060;2023-05-21T11:47:50;100131.75;;;16.66;51.59
51053;BME280;37093;37.716;-122.060;2023-05-21T11:50:19;100128.16;;;16.34;51.71
51053;BME280;37093;37.716;-122.060;2023-05-21T11:52:48;100129.16;;;16.95;50.94
51053;BME280;37093;37.716;-122.060;2023-05-21T11:55:22;100126.29;;;16.82;50.64
51053;BME280;37093;37.716;-122.060;2023-05-21T11:57:53;100121.32;;;17.09;50.01
51053;BME280;37093;37.716;-122.060;2023-05-21T12:00:21;100121.20;;;16.87;50.10
51053;BME280;37093;37.716;-122.060;2023-05-21T12:02:51;100120.60;;;17.11;50.16
51053;BME280;37093;37.716;-122.060;2023-05-21T12:05:20;100115.47;;;17.05;50.10
51053;BME280;37093;37.716;-122.060;2023-05-21T12:07:49;100110.15;;;17.23;50.15
51053;BME280;37093;37.716;-122.060;2023-05-21T12:10:20;100111.01;;;16.80;50.06
51053;BME280;37093;37.716;-122.060;2023-05-21T12:12:49;100110.10;;;16.56;50.02
51053;BME280;37093;37.716;-122.060;2023-05-21T12:15:18;100110.39;;;17.09;49.61
51053;BME280;37093;37.716;-122.060;2023-05-21T12:17:49;100110.55;;;17.24;49.46
51053;BME280;37093;37.716;-122.060;2023-05-21T12:20:17;100105.95;;;17.02;48.81
51053;BME280;37093;37.716;-122.060;2023-05-21T12:22:48;100103.38;;;16.94;50.95
51053;BME280;37093;37.716;-122.060;2023-05-21T12:25:18;100103.90;;;16.48;50.56
51053;BME280;37093;37.716;-122.060;2023-05-21T12:27:47;100104.91;;;16.59;50.70
51053;BME280;37093;37.716;-122.060;2023-05-21T12:30:16;100100.18;;;16.47;52.07
51053;BME280;37093;37.716;-122.060;2023-05-21T12:32:44;100096.61;;;16.86;50.92